Time;durP1;ratioP1;P1;durP2;ratioP2;P2;SDS_P1;SDS_P2;PMS_P1;PMS_P2;Temp;Humidity;BMP_temperature;BMP_pressure;BME280_temperature;BME280_humidity;BME280_pressure;Samples;Min_cycle;Max_cycle;Signal;HPM_P1;HPM_P2
2022/01/28 00:00:07;;;;;;;342.55;240.68;;;;;;;24.19;33.27;103333.38;5061279;28;20032;-41
2022/01/28 00:02:49;;;;;;;342.27;238.63;;;;;;;24.14;33.57;103337.47;5076666;28;20032;-42
2022/01/28 00:05:20;;;;;;;336.20;236.05;;;;;;;24.14;33.61;103340.09;5076699;28;20036;-42
2022/01/28 00:07:49;;;;;;;336.40;240.88;;;;;;;24.16;33.46;103348.06;5076624;28;20127;-41
2022/01/28 00:10:19;;;;;;;344.85;243.18;;;;;;;24.14;33.61;103347.97;5076712;28;20028;-41
2022/01/28 00:13:05;;;;;;;351.33;245.60;;;;;;;24.11;33.21;103342.56;5076661;28;20040;-41
2022/01/28 00:39:50;;;;;;;346.90;243.32;;;;;;;24.04;33.93;103341.38;5076283;28;20483;-42
2022/01/28 00:42:18;;;;;;;355.67;245.65;;;;;;;24.02;33.51;103335.13;5075983;28;20383;-42
2022/01/28 00:44:47;;;;;;;345.63;246.35;;;;;;;24.05;33.82;103345.78;5075798;28;20487;-41
2022/01/28 00:47:15;;;;;;;355.52;247.75;;;;;;;24.05;33.61;103343.16;5076052;28;20032;-41
2022/01/28 00:49:43;;;;;;;364.88;249.73;;;;;;;24.03;33.96;103343.91;5075360;28;20030;-42
2022/01/28 00:52:12;;;;;;;350.40;250.00;;;;;;;24.00;33.80;103344.66;5075816;28;20514;-41
2022/01/28 00:54:41;;;;;;;366.52;252.52;;;;;;;24.02;33.91;103343.00;5058025;28;20086;-42
2022/01/28 00:57:09;;;;;;;353.90;253.15;;;;;;;23.96;34.20;103337.44;5075983;28;20021;-41
2022/01/28 00:59:37;;;;;;;343.77;247.30;;;;;;;23.99;33.89;103336.72;5075574;28;20043;-41
2022/01/28 01:02:06;;;;;;;354.95;250.40;;;;;;;23.95;34.08;103343.50;5057602;28;20115;-43
2022/01/28 01:04:35;;;;;;;363.08;251.27;;;;;;;23.96;34.27;103345.31;5057889;28;20107;-41
2022/01/28 01:07:03;;;;;;;356.02;255.68;;;;;;;23.98;33.98;103343.69;5075576;28;20020;-41
2022/01/28 01:09:32;;;;;;;357.23;254.25;;;;;;;23.95;33.89;103348.75;5074174;28;20042;-41
2022/01/28 01:12:00;;;;;;;359.17;253.73;;;;;;;23.92;33.95;103333.75;5074964;28;20040;-41
2022/01/28 01:14:29;;;;;;;347.83;244.40;;;;;;;23.96;34.02;103340.97;5075064;28;20050;-42
2022/01/28 01:19:31;;;;;;;363.85;254.75;;;;;;;23.95;34.01;103340.88;5057341;28;20055;-42
2022/01/28 01:22:00;;;;;;;361.35;256.60;;;;;;;23.95;33.89;103335.63;5075104;28;20024;-42
2022/01/28 01:24:35;;;;;;;369.50;258.63;;;;;;;23.89;33.92;103328.38;5075717;28;20029;-42
2022/01/28 01:27:04;;;;;;;;;;;;;;;24.01;33.92;103330.72;5058893;28;20066;-42
2022/01/28 01:29:33;;;;;;;376.13;260.10;;;;;;;23.94;34.31;103333.84;5075157;28;19916;-42
2022/01/28 01:32:03;;;;;;;367.98;256.65;;;;;;;23.96;33.92;103334.81;5074806;28;20392;-41
2022/01/28 01:34:31;;;;;;;366.88;258.10;;;;;;;23.93;34.03;103348.66;5074920;28;20024;-41
2022/01/28 01:37:00;;;;;;;377.88;265.08;;;;;;;23.91;34.25;103345.03;5075069;28;20033;-41
2022/01/28 01:39:33;;;;;;;376.70;263.27;;;;;;;23.91;34.12;103345.03;5075075;28;20020;-42
2022/01/28 01:42:16;;;;;;;360.27;257.60;;;;;;;23.88;34.40;103330.88;5074870;28;20222;-42
2022/01/28 01:53:00;;;;;;;376.30;265.08;;;;;;;23.88;34.10;103352.78;5066699;28;20098;-41
2022/01/28 01:55:29;;;;;;;372.90;265.45;;;;;;;23.43;34.22;103284.03;5074740;28;20024;-41
2022/01/28 01:57:57;;;;;;;378.67;266.33;;;;;;;23.88;34.32;103373.75;5074220;28;20032;-41
2022/01/28 02:00:26;;;;;;;363.33;262.30;;;;;;;23.86;34.45;103371.84;5056861;28;20541;-42
2022/01/28 02:02:54;;;;;;;375.90;264.25;;;;;;;23.84;34.65;103374.41;5074701;28;20437;-42
2022/01/28 02:05:22;;;;;;;379.25;264.25;;;;;;;23.86;34.30;103371.84;5056308;28;20036;-42
2022/01/28 02:07:51;;;;;;;375.05;266.42;;;;;;;23.85;34.54;103370.97;5056473;28;20021;-41
2022/01/28 02:10:19;;;;;;;381.92;270.17;;;;;;;23.78;34.38;103356.66;5074141;28;20024;-40
2022/01/28 02:12:50;;;;;;;374.88;266.10;;;;;;;23.82;34.14;103368.19;5074232;28;20074;-42
2022/01/28 02:15:19;;;;;;;375.73;264.08;;;;;;;23.69;34.40;103358.78;5074124;28;20024;-42
2022/01/28 02:17:48;;;;;;;374.40;265.90;;;;;;;23.81;34.67;103388.25;5074463;28;20487;-42
2022/01/28 02:20:27;;;;;;;369.40;271.92;;;;;;;23.81;34.76;103392.59;5074351;28;20126;-41
2022/01/28 02:22:56;;;;;;;379.58;272.42;;;;;;;23.78;34.51;103393.34;5073967;28;20028;-42
2022/01/28 02:25:27;;;;;;;368.63;269.05;;;;;;;23.81;34.78;103389.97;5056042;28;20028;-41
2022/01/28 02:27:58;;;;;;;376.50;267.85;;;;;;;23.81;34.63;103389.97;5056251;28;20382;-42
2022/01/28 02:30:27;;;;;;;385.98;270.45;;;;;;;23.78;34.72;103387.19;5073844;28;20108;-42
2022/01/28 02:33:01;;;;;;;386.60;272.88;;;;;;;23.77;34.70;103386.28;5073686;28;20021;-42
2022/01/28 02:35:30;;;;;;;377.17;272.95;;;;;;;23.79;34.56;103391.59;5073519;28;20451;-41
2022/01/28 02:37:58;;;;;;;383.63;268.25;;;;;;;23.75;34.88;103395.78;5056070;28;20078;-43
2022/01/28 02:40:27;;;;;;;382.58;275.15;;;;;;;23.72;34.75;103390.38;5073849;28;20035;-41
2022/01/28 02:43:02;;;;;;;387.70;273.15;;;;;;;23.82;34.51;103405.78;5073723;28;20028;-41
2022/01/28 02:45:37;;;;;;;;;;;;;;;23.88;34.51;103409.53;5073778;28;20118;-41
2022/01/28 02:48:13;;;;;;;384.10;280.92;;;;;;;23.82;34.77;103411.03;5073639;28;19919;-41
2022/01/28 02:51:08;;;;;;;386.65;277.98;;;;;;;23.78;34.66;103403.81;5073376;28;20465;-42
2022/01/28 02:53:56;;;;;;;389.73;275.38;;;;;;;23.80;34.59;103402.19;5073121;28;20025;-41
2022/01/28 02:56:40;;;;;;;386.70;277.40;;;;;;;23.78;34.63;103414.31;5073248;28;20039;-42
2022/01/28 02:59:08;;;;;;;391.80;280.73;;;;;;;23.77;34.84;103420.38;5073182;28;20036;-41
2022/01/28 03:01:37;;;;;;;383.70;276.38;;;;;;;23.77;34.88;103409.88;5073169;28;20021;-41
2022/01/28 03:04:07;;;;;;;390.25;279.05;;;;;;;23.76;34.80;103402.84;5073051;28;20024;-41
2022/01/28 03:06:35;;;;;;;384.42;275.17;;;;;;;23.74;35.14;103400.97;5072856;28;20025;-41
2022/01/28 03:09:15;;;;;;;392.45;277.67;;;;;;;23.68;34.92;103388.41;5072929;28;20056;-42
2022/01/28 03:11:46;;;;;;;382.65;277.30;;;;;;;23.75;34.84;103395.78;5073222;28;20107;-42
2022/01/28 03:14:20;;;;;;;386.92;276.75;;;;;;;23.74;34.90;103393.09;5073231;28;20028;-42
2022/01/28 03:19:40;;;;;;;388.42;278.52;;;;;;;23.71;34.75;103372.84;5073081;28;20032;-42
2022/01/28 03:22:08;;;;;;;388.48;276.23;;;;;;;23.76;35.04;103370.47;5073047;28;20021;-42
2022/01/28 03:24:38;;;;;;;384.42;277.77;;;;;;;23.73;34.84;103371.22;5073157;28;20036;-42
2022/01/28 03:27:12;;;;;;;388.48;278.27;;;;;;;23.70;35.30;103376.28;5055395;28;20035;-42
2022/01/28 03:29:41;;;;;;;387.63;279.88;;;;;;;23.70;34.77;103371.06;5054418;28;20032;-42
2022/01/28 03:32:09;;;;;;;387.40;278.38;;;;;;;23.66;35.31;103369.13;5072644;28;20028;-42
2022/01/28 03:34:38;;;;;;;389.15;278.17;;;;;;;23.73;34.87;103362.47;5073058;28;20032;-42
2022/01/28 03:37:08;;;;;;;390.30;277.90;;;;;;;23.70;35.02;103370.16;5073100;28;20115;-42
2022/01/28 03:39:37;;;;;;;384.88;277.30;;;;;;;23.66;35.16;103361.25;5073480;28;20452;-42
2022/01/28 03:42:06;;;;;;;388.33;273.13;;;;;;;23.69;34.92;103357.88;5072708;28;20082;-41
2022/01/28 03:44:35;;;;;;;388.02;277.83;;;;;;;23.66;34.92;103338.56;5072714;28;20021;-41
2022/01/28 03:47:04;;;;;;;397.90;282.05;;;;;;;23.67;35.05;103345.59;5073024;28;20074;-41
2022/01/28 03:49:32;;;;;;;407.25;285.50;;;;;;;23.67;34.93;103342.97;5073110;28;20016;-42
2022/01/28 03:52:01;;;;;;;404.55;285.10;;;;;;;23.64;35.04;103339.31;5073063;28;20021;-42
2022/01/28 03:54:29;;;;;;;389.52;282.90;;;;;;;23.66;34.89;103345.53;5055244;28;20024;-40
2022/01/28 03:56:58;;;;;;;397.60;281.70;;;;;;;23.66;35.22;103345.53;5072665;28;20041;-41
2022/01/28 03:59:27;;;;;;;386.02;280.00;;;;;;;23.69;35.19;103334.31;5072583;28;20031;-41
2022/01/28 04:01:55;;;;;;;393.27;279.77;;;;;;;23.71;35.02;103337.91;5072850;28;20021;-41
2022/01/28 04:12:42;;;;;;;387.13;282.60;;;;;;;23.66;35.36;103349.03;5065814;28;20087;-41
2022/01/28 04:17:49;;;;;;;402.88;289.95;;;;;;;23.64;35.37;103349.78;5072823;28;20129;-41
2022/01/28 04:20:18;;;;;;;394.58;284.65;;;;;;;23.63;35.36;103351.50;5072492;28;20033;-42
2022/01/28 04:22:46;;;;;;;398.65;288.30;;;;;;;23.65;34.98;103346.34;5072088;28;20112;-41
2022/01/28 04:25:15;;;;;;;403.70;289.60;;;;;;;23.63;35.22;103353.22;5072065;28;20391;-41
2022/01/28 04:27:44;;;;;;;397.67;286.95;;;;;;;23.64;35.05;103353.28;5072532;28;20017;-41
2022/01/28 04:30:13;;;;;;;386.75;279.80;;;;;;;23.66;35.14;103354.28;5072490;28;20055;-41
2022/01/28 04:32:42;;;;;;;391.70;285.73;;;;;;;23.64;34.94;103355.03;5072443;28;20051;-42
2022/01/28 04:35:11;;;;;;;405.60;289.27;;;;;;;23.62;35.13;103346.19;5054565;28;20048;-41
2022/01/28 04:43:33;;;;;;;402.77;291.10;;;;;;;23.61;35.21;103339.13;5072540;28;20028;-41
2022/01/28 04:45:39;;;;;;;403.27;288.42;;;;;;;23.57;35.32;103330.22;5068687;28;20044;-41
2022/01/28 04:48:20;;;;;;;390.45;284.73;;;;;;;23.61;35.39;103333.91;5075818;28;20031;-41
2022/01/28 04:53:54;;;;;;;400.98;291.83;;;;;;;23.60;35.33;103334.72;5075937;28;20028;-40
2022/01/28 05:06:54;;;;;;;398.38;289.50;;;;;;;23.56;35.80;103338.91;5075648;28;20090;-41
2022/01/28 05:28:50;;;;;;;414.10;300.83;;;;;;;23.56;35.69;103370.34;5068097;28;20036;-41
2022/01/28 05:31:19;;;;;;;402.17;293.30;;;;;;;23.54;35.55;103368.44;5075082;28;20029;-42
2022/01/28 05:33:48;;;;;;;401.83;294.05;;;;;;;23.51;35.90;103370.09;5075197;28;20108;-42
2022/01/28 05:36:17;;;;;;;403.77;293.35;;;;;;;23.54;35.65;103373.69;5056952;28;20052;-41
2022/01/28 05:38:46;;;;;;;409.25;299.17;;;;;;;23.58;35.83;103378.28;5075621;28;20028;-41
2022/01/28 05:41:15;;;;;;;410.13;296.45;;;;;;;23.59;35.61;103380.09;5057123;28;20025;-41
2022/01/28 05:43:43;;;;;;;396.98;291.33;;;;;;;23.55;35.46;103380.72;5074840;28;20033;-41
2022/01/28 05:46:12;;;;;;;400.75;290.17;;;;;;;23.50;35.53;103376.13;5074578;28;20025;-41
2022/01/28 05:48:40;;;;;;;410.20;298.60;;;;;;;23.50;35.96;103389.25;5057224;28;20032;-41
2022/01/28 05:51:09;;;;;;;398.95;295.98;;;;;;;23.52;35.96;103389.34;5074467;28;20193;-41
2022/01/28 05:53:37;;;;;;;397.20;287.10;;;;;;;23.52;35.72;103390.22;5074530;28;20024;-42
2022/01/28 05:56:06;;;;;;;400.50;290.48;;;;;;;23.52;35.61;103387.59;5074199;28;20024;-41
2022/01/28 05:58:34;;;;;;;390.40;285.00;;;;;;;23.57;35.48;103389.56;5056883;28;20351;-40
2022/01/28 06:01:02;;;;;;;406.48;293.48;;;;;;;23.53;35.86;103388.53;5074607;28;20071;-41
2022/01/28 06:03:31;;;;;;;408.42;294.83;;;;;;;23.54;35.46;103385.09;5074336;28;20056;-42
2022/01/28 06:05:59;;;;;;;408.70;296.48;;;;;;;23.50;35.66;103391.84;5056343;28;20103;-41
2022/01/28 06:08:28;;;;;;;415.40;298.13;;;;;;;23.55;35.61;103399.06;5074507;28;20082;-41
2022/01/28 06:10:57;;;;;;;404.15;297.63;;;;;;;23.55;35.61;103407.84;5055984;28;20112;-41
2022/01/28 06:13:25;;;;;;;400.00;292.95;;;;;;;23.50;35.85;103412.81;5074385;28;20082;-41
2022/01/28 06:15:56;;;;;;;401.08;292.85;;;;;;;23.44;35.57;103409.88;5074013;28;20024;-41
2022/01/28 06:18:24;;;;;;;407.90;298.38;;;;;;;23.47;35.67;103424.84;5074577;28;20024;-45
2022/01/28 06:20:53;;;;;;;410.55;297.05;;;;;;;23.49;36.01;103423.22;5074079;28;20036;-42
2022/01/28 06:23:22;;;;;;;399.67;294.17;;;;;;;23.48;35.63;103422.34;5073273;28;20033;-41
2022/01/28 06:25:50;;;;;;;395.15;290.63;;;;;;;23.52;35.78;103424.28;5073514;28;20548;-44
2022/01/28 06:28:19;;;;;;;404.13;296.42;;;;;;;23.47;36.08;103414.38;5073585;28;20032;-41
2022/01/28 06:30:48;;;;;;;413.48;298.60;;;;;;;23.48;35.91;103419.72;5073707;28;20381;-41
2022/01/28 06:33:16;;;;;;;406.13;299.52;;;;;;;23.48;36.09;103409.25;5073706;28;20081;-41
2022/01/28 06:35:45;;;;;;;405.35;297.65;;;;;;;23.47;36.12;103412.69;5055820;28;20075;-41
2022/01/28 06:38:14;;;;;;;410.23;302.77;;;;;;;23.48;35.63;103408.31;5073604;28;20025;-44
2022/01/28 06:40:43;;;;;;;413.90;303.35;;;;;;;23.48;36.08;103416.19;5055215;28;20020;-41
2022/01/28 06:43:13;;;;;;;404.95;295.55;;;;;;;23.45;36.00;103416.94;5073324;28;20029;-41
2022/01/28 06:45:43;;;;;;;402.52;296.80;;;;;;;23.45;36.12;103416.94;5073533;28;20032;-41
2022/01/28 06:48:12;;;;;;;408.60;303.10;;;;;;;23.44;36.33;103430.84;5073121;28;20387;-42
2022/01/28 06:50:42;;;;;;;412.00;305.05;;;;;;;23.43;35.90;103441.22;5073704;28;20035;-41
2022/01/28 06:53:13;;;;;;;399.08;297.23;;;;;;;23.40;36.24;103444.59;5073557;28;20036;-41
2022/01/28 06:55:42;;;;;;;407.23;302.77;;;;;;;23.43;36.02;103443.84;5073092;28;20056;-42
2022/01/28 06:58:11;;;;;;;404.17;303.35;;;;;;;23.44;36.34;103448.25;5073924;28;20047;-41
2022/01/28 07:00:40;;;;;;;411.08;298.92;;;;;;;23.43;35.88;103455.25;5073517;28;20094;-41
2022/01/28 07:03:11;;;;;;;403.80;297.67;;;;;;;23.45;36.24;103458.84;5073656;28;20024;-41
2022/01/28 07:05:40;;;;;;;412.23;301.88;;;;;;;23.43;36.04;103460.47;5073137;28;20036;-41
2022/01/28 07:08:09;;;;;;;408.05;303.70;;;;;;;23.43;35.92;103464.78;5073220;28;20024;-41
2022/01/28 07:10:38;;;;;;;412.67;299.85;;;;;;;23.41;36.09;103458.59;5073128;28;20440;-41
2022/01/28 07:13:06;;;;;;;410.05;298.20;;;;;;;23.44;35.85;103464.91;5055308;28;20028;-41
2022/01/28 07:15:35;;;;;;;404.08;303.25;;;;;;;23.42;35.91;103460.38;5073273;28;20468;-41
2022/01/28 07:18:04;;;;;;;404.45;300.88;;;;;;;23.39;36.34;103455.88;5073381;28;20032;-41
2022/01/28 07:20:34;;;;;;;408.17;303.13;;;;;;;23.43;35.92;103459.56;5072989;28;20032;-43
2022/01/28 07:23:03;;;;;;;412.45;301.95;;;;;;;23.41;36.14;103462.09;5072511;28;20387;-41
2022/01/28 07:25:32;;;;;;;405.83;298.15;;;;;;;23.43;36.23;103464.78;5072794;28;20036;-41
2022/01/28 07:28:01;;;;;;;408.40;299.88;;;;;;;23.39;36.26;103463.75;5073134;28;20063;-41
2022/01/28 07:30:31;;;;;;;410.60;305.35;;;;;;;23.41;36.09;103464.72;5054890;28;20426;-43
2022/01/28 07:33:00;;;;;;;407.75;307.02;;;;;;;23.39;36.19;103476.84;5039151;28;20039;-42
2022/01/28 07:35:29;;;;;;;419.13;309.83;;;;;;;23.35;36.14;103474.84;5073228;28;20052;-42
2022/01/28 07:38:01;;;;;;;428.45;315.20;;;;;;;23.37;36.45;103470.59;5055592;28;20411;-43
2022/01/28 07:40:30;;;;;;;412.70;311.77;;;;;;;23.38;36.11;103477.66;5072417;28;20031;-42
2022/01/28 07:42:58;;;;;;;424.65;312.42;;;;;;;23.41;36.35;103483.06;5072867;28;20411;-42
2022/01/28 07:45:27;;;;;;;426.77;316.92;;;;;;;23.38;36.52;103482.88;5072283;28;20063;-44
2022/01/28 07:47:55;;;;;;;416.48;309.27;;;;;;;23.39;36.46;103484.69;5054301;28;20025;-43
2022/01/28 07:50:24;;;;;;;411.38;300.05;;;;;;;23.41;36.35;103488.31;5055471;28;20050;-42
2022/01/28 07:52:52;;;;;;;417.63;305.98;;;;;;;23.40;36.15;103496.97;5054994;28;20028;-42
2022/01/28 07:55:20;;;;;;;419.60;309.60;;;;;;;23.43;36.50;103499.78;5072877;28;20103;-42
2022/01/28 07:57:49;;;;;;;419.15;311.55;;;;;;;23.41;36.40;103493.53;5054810;28;20425;-42
2022/01/28 08:00:17;;;;;;;412.80;303.63;;;;;;;23.38;36.10;103489.84;5072767;28;20028;-43
2022/01/28 08:02:45;;;;;;;417.85;305.90;;;;;;;23.38;36.19;103501.22;5072875;28;20055;-42
2022/01/28 08:05:13;;;;;;;419.52;307.05;;;;;;;23.38;36.41;103502.97;5072165;28;20029;-41
2022/01/28 08:07:43;;;;;;;407.08;298.10;;;;;;;23.36;36.36;103508.09;5072330;28;20029;-42
2022/01/28 08:10:16;;;;;;;420.67;305.85;;;;;;;23.32;36.39;103504.41;5054816;28;20031;-41
2022/01/28 08:12:50;;;;;;;413.98;304.08;;;;;;;23.39;36.15;103513.50;5072384;28;20021;-41
2022/01/28 08:15:19;;;;;;;422.02;313.55;;;;;;;23.41;36.55;103514.50;5072831;28;20390;-40
2022/01/28 08:17:49;;;;;;;397.27;298.73;;;;;;;23.39;36.36;103510.88;5073906;28;20368;-41
2022/01/28 08:20:18;;;;;;;399.70;298.23;;;;;;;23.38;36.38;103506.47;5076191;28;20494;-41
2022/01/28 08:22:52;;;;;;;415.65;304.70;;;;;;;23.37;36.49;103504.66;5076103;28;20031;-40
2022/01/28 08:25:22;;;;;;;416.40;311.45;;;;;;;23.41;36.45;103493.53;5075925;28;20211;-41
2022/01/28 08:27:51;;;;;;;410.15;303.25;;;;;;;23.37;36.15;103499.41;5076072;28;20132;-41
2022/01/28 08:30:22;;;;;;;413.20;305.45;;;;;;;23.31;36.64;103488.63;5076242;28;20028;-41
2022/01/28 08:32:51;;;;;;;408.20;307.13;;;;;;;23.38;36.40;103511.69;5076204;28;20115;-41
2022/01/28 08:35:27;;;;;;;420.20;306.40;;;;;;;23.38;36.56;103510.81;5075807;28;20067;-42
2022/01/28 08:37:58;;;;;;;420.92;311.30;;;;;;;23.38;36.41;103516.06;5058205;28;20039;-41
2022/01/28 08:40:29;;;;;;;430.88;310.52;;;;;;;23.38;36.63;103529.16;5075936;28;20078;-40
2022/01/28 08:42:58;;;;;;;425.08;309.65;;;;;;;23.38;36.59;103534.38;5076049;28;20025;-41
2022/01/28 08:45:27;;;;;;;425.58;309.90;;;;;;;23.32;36.47;103529.72;5075747;28;20141;-41
2022/01/28 08:47:56;;;;;;;418.95;307.35;;;;;;;23.38;36.68;103537.00;5076040;28;20494;-41
2022/01/28 08:50:25;;;;;;;422.75;314.00;;;;;;;23.36;36.69;103536.91;5076032;28;20383;-43
2022/01/28 08:52:54;;;;;;;410.00;301.98;;;;;;;23.36;36.43;103550.91;5075917;28;20060;-42
2022/01/28 08:55:25;;;;;;;430.35;309.50;;;;;;;23.33;36.73;103553.34;5075879;28;20498;-41
2022/01/28 08:57:54;;;;;;;409.30;303.80;;;;;;;23.39;36.35;103559.78;5076129;28;20146;-42
2022/01/28 09:00:22;;;;;;;409.77;302.00;;;;;;;23.38;36.20;103560.59;5057283;28;20028;-42
2022/01/28 09:02:52;;;;;;;398.65;297.90;;;;;;;23.37;36.21;103562.28;5075160;28;20024;-41
2022/01/28 09:05:21;;;;;;;411.10;297.70;;;;;;;23.33;36.83;103561.22;5074998;28;20037;-40
2022/01/28 09:07:49;;;;;;;417.73;304.00;;;;;;;23.35;36.68;103556.97;5075478;28;20036;-41
2022/01/28 09:10:18;;;;;;;411.00;296.73;;;;;;;23.39;36.91;103554.53;5075827;28;20029;-42
2022/01/28 09:13:10;;;;;;;408.63;300.60;;;;;;;23.32;36.76;103548.94;5057861;28;20029;-42
2022/01/28 09:15:41;;;;;;;414.42;298.77;;;;;;;23.42;36.86;103542.50;5075230;28;20032;-42
2022/01/28 09:18:10;;;;;;;414.08;300.92;;;;;;;23.38;36.88;103539.63;5075691;28;20025;-43
2022/01/28 09:20:39;;;;;;;406.90;295.52;;;;;;;23.38;36.75;103539.63;5057581;28;20025;-43
2022/01/28 09:23:09;;;;;;;417.65;301.98;;;;;;;23.39;36.80;103542.31;5074825;28;20028;-45
2022/01/28 09:25:38;;;;;;;408.60;300.50;;;;;;;23.39;36.82;103544.94;5075312;28;20089;-41
2022/01/28 09:28:06;;;;;;;410.70;304.92;;;;;;;23.41;36.71;103550.28;5075070;28;20024;-43
2022/01/28 09:30:35;;;;;;;405.85;299.48;;;;;;;23.41;36.79;103555.53;5074273;28;20074;-42
2022/01/28 09:33:04;;;;;;;417.13;299.90;;;;;;;23.40;36.84;103557.22;5075355;28;20062;-43
2022/01/28 09:35:34;;;;;;;400.65;294.40;;;;;;;23.41;36.94;103566.00;5074932;28;20086;-42
2022/01/28 09:38:03;;;;;;;403.83;294.25;;;;;;;23.39;36.89;103563.28;5074461;28;20036;-43
2022/01/28 09:40:32;;;;;;;415.45;302.00;;;;;;;23.43;36.86;103561.72;5074840;28;20051;-42
2022/01/28 09:43:04;;;;;;;412.77;300.70;;;;;;;23.40;36.95;103566.81;5075413;28;20024;-43
2022/01/28 09:45:33;;;;;;;416.83;301.80;;;;;;;23.42;37.03;103573.00;5057267;28;20062;-42
2022/01/28 09:48:01;;;;;;;407.73;293.60;;;;;;;23.40;37.19;103562.47;5074401;28;20039;-42
2022/01/28 09:50:32;;;;;;;404.58;295.85;;;;;;;23.38;37.16;103560.59;5074950;28;20086;-42
2022/01/28 09:53:01;;;;;;;413.65;294.40;;;;;;;23.33;37.45;103545.50;5074669;28;20035;-43
2022/01/28 09:55:30;;;;;;;408.45;299.10;;;;;;;23.43;36.80;103562.66;5075070;28;20138;-42
2022/01/28 09:58:00;;;;;;;409.35;299.15;;;;;;;23.40;37.04;103572.94;5057048;28;20064;-42
2022/01/28 10:00:30;;;;;;;407.58;293.67;;;;;;;23.34;37.30;103559.47;5074581;28;20078;-43
2022/01/28 10:03:03;;;;;;;413.25;298.48;;;;;;;23.41;37.20;103566.88;5074730;28;20035;-43
2022/01/28 10:05:37;;;;;;;396.52;286.45;;;;;;;23.44;36.99;103566.16;5056653;28;20029;-47
2022/01/28 10:08:17;;;;;;;395.10;287.10;;;;;;;23.48;37.04;103568.13;5074398;28;20038;-43
2022/01/28 10:10:54;;;;;;;404.42;292.25;;;;;;;23.48;36.68;103576.00;5039980;28;20541;-45
2022/01/28 10:13:33;;;;;;;383.23;277.48;;;;;;;23.47;36.58;103569.88;5075033;28;20501;-42
2022/01/28 10:16:05;;;;;;;386.90;276.13;;;;;;;23.45;36.80;103576.72;5074282;28;20028;-45
2022/01/28 10:18:42;;;;;;;385.33;277.95;;;;;;;23.47;36.72;103572.50;5056449;28;20383;-42
2022/01/28 10:21:32;;;;;;;378.17;269.52;;;;;;;23.48;36.69;103569.06;5074127;28;20033;-43
2022/01/28 10:24:20;;;;;;;377.02;273.40;;;;;;;23.50;36.62;103571.75;5066297;28;20033;-42
2022/01/28 10:26:52;;;;;;;362.13;264.83;;;;;;;23.45;36.49;103578.44;5073503;28;20028;-42
2022/01/28 10:29:24;;;;;;;368.23;265.00;;;;;;;23.48;36.65;103574.28;5056164;28;20035;-43
2022/01/28 10:31:58;;;;;;;359.15;258.80;;;;;;;23.47;36.64;103571.56;5073622;28;20484;-42
2022/01/28 10:34:29;;;;;;;352.25;258.35;;;;;;;23.49;36.80;103583.03;5073825;28;20058;-42
2022/01/28 10:37:18;;;;;;;357.83;254.38;;;;;;;23.49;36.73;103583.97;5074079;28;20059;-44
2022/01/28 10:39:57;;;;;;;352.38;251.82;;;;;;;23.50;36.76;103588.34;5073636;28;20028;-42
2022/01/28 10:42:51;;;;;;;349.65;249.95;;;;;;;23.50;36.76;103584.84;5073758;28;20106;-41
2022/01/28 10:45:24;;;;;;;352.45;248.93;;;;;;;23.50;36.75;103588.34;5073727;28;20033;-41
2022/01/28 10:47:55;;;;;;;349.70;248.68;;;;;;;23.49;36.81;103591.81;5073646;28;20476;-42
2022/01/28 10:50:43;;;;;;;336.17;243.82;;;;;;;23.50;36.46;103588.34;5039573;28;20407;-42
2022/01/28 10:53:14;;;;;;;332.13;237.88;;;;;;;23.49;36.34;103589.19;5073324;28;20029;-41
2022/01/28 10:55:54;;;;;;;317.33;235.90;;;;;;;23.50;36.32;103593.59;5073397;28;20134;-41
2022/01/28 10:58:24;;;;;;;324.92;234.50;;;;;;;23.49;36.47;103593.53;5074027;28;20028;-41
2022/01/28 11:00:57;;;;;;;322.65;234.27;;;;;;;23.51;36.61;103587.53;5072962;28;20115;-45
2022/01/28 11:03:27;;;;;;;322.80;231.13;;;;;;;23.51;36.38;103587.53;5055867;28;20016;-42
2022/01/28 11:05:58;;;;;;;304.17;226.77;;;;;;;23.52;36.66;103605.06;5073097;28;20055;-42
2022/01/28 11:08:30;;;;;;;303.02;223.80;;;;;;;23.49;36.23;103597.06;5056312;28;20027;-40
2022/01/28 11:10:59;;;;;;;321.40;227.95;;;;;;;23.51;36.63;103605.88;5073162;28;20031;-41
2022/01/28 11:13:28;;;;;;;320.17;225.05;;;;;;;23.48;36.41;103599.56;5055650;28;20035;-41
2022/01/28 11:15:57;;;;;;;322.73;230.38;;;;;;;23.45;36.91;103605.56;5073130;28;20035;-41
2022/01/28 11:18:27;;;;;;;316.88;230.70;;;;;;;23.48;36.54;103612.69;5072676;28;20086;-42
2022/01/28 11:21:00;;;;;;;311.02;221.50;;;;;;;23.49;36.71;103606.63;5055354;28;20025;-42
2022/01/28 11:23:34;;;;;;;303.50;223.32;;;;;;;23.48;36.49;103605.72;5073964;28;20032;-41
2022/01/28 11:26:23;;;;;;;315.20;227.05;;;;;;;23.49;36.60;103611.84;5073065;28;20115;-41
2022/01/28 11:28:55;;;;;;;300.77;216.80;;;;;;;23.47;36.56;103606.53;5066267;28;20098;-42
2022/01/28 11:31:53;;;;;;;283.40;207.50;;;;;;;23.48;36.53;103605.72;5072948;28;20043;-41
2022/01/28 11:34:25;;;;;;;293.23;210.60;;;;;;;23.49;36.49;103604.91;5073075;28;20032;-47
2022/01/28 11:36:56;;;;;;;282.05;203.48;;;;;;;23.48;36.65;103604.81;5072529;28;20119;-43
2022/01/28 11:39:38;;;;;;;279.33;202.93;;;;;;;23.59;36.29;103601.06;5072894;28;20033;-43
2022/01/28 11:42:10;;;;;;;290.02;200.18;;;;;;;23.57;36.70;103596.56;5054952;28;20414;-48
2022/01/28 11:44:59;;;;;;;271.75;197.10;;;;;;;23.63;36.45;103596.94;5072709;28;20372;-42
2022/01/28 11:47:56;;;;;;;269.48;192.27;;;;;;;23.68;36.62;103590.19;5072470;28;20025;-44
2022/01/28 11:50:25;;;;;;;256.77;188.65;;;;;;;23.71;36.49;103585.13;5052124;28;20372;-41
2022/01/28 11:52:55;;;;;;;252.18;182.75;;;;;;;23.71;36.45;103582.53;5074734;28;20078;-45
2022/01/28 11:55:25;;;;;;;253.55;182.73;;;;;;;23.74;36.45;103580.06;5077088;28;20442;-43
2022/01/28 11:57:55;;;;;;;241.82;177.07;;;;;;;23.78;36.39;103576.81;5076919;28;20035;-42
2022/01/28 12:00:29;;;;;;;246.75;176.07;;;;;;;23.83;36.74;103577.06;5077534;28;20029;-44
2022/01/28 12:02:58;;;;;;;252.15;176.88;;;;;;;23.88;36.24;103575.59;5077656;28;20031;-42
2022/01/28 12:05:30;;;;;;;237.50;173.45;;;;;;;23.92;36.44;103574.03;5076805;28;20036;-45
2022/01/28 12:08:03;;;;;;;235.48;165.85;;;;;;;23.97;36.20;103563.00;5058594;28;20067;-42
2022/01/28 12:10:33;;;;;;;230.38;159.32;;;;;;;23.97;36.45;103549.91;5057751;28;20024;-44
2022/01/28 12:13:05;;;;;;;228.38;162.13;;;;;;;24.07;36.37;103559.16;5058795;28;20058;-45
2022/01/28 12:16:17;;;;;;;230.98;164.93;;;;;;;24.10;36.23;103556.72;5076825;28;20025;-42
2022/01/28 12:18:46;;;;;;;220.50;156.55;;;;;;;24.18;36.13;103554.50;5076071;28;20036;-45
2022/01/28 12:21:21;;;;;;;230.02;160.57;;;;;;;24.20;36.07;103551.94;5076114;28;20028;-44
2022/01/28 12:23:48;;;;;;;224.13;156.63;;;;;;;24.23;36.17;103546.88;5076453;28;20036;-44
2022/01/28 12:26:19;;;;;;;218.32;152.77;;;;;;;24.22;36.02;103548.59;5075768;28;20071;-42
2022/01/28 12:28:50;;;;;;;229.43;159.32;;;;;;;24.28;36.00;103555.91;5076118;28;20382;-42
2022/01/28 12:31:24;;;;;;;225.02;157.13;;;;;;;24.31;35.76;103556.06;5076485;28;20021;-42
2022/01/28 12:33:55;;;;;;;206.85;148.20;;;;;;;24.32;36.14;103560.50;5057985;28;20468;-44
2022/01/28 12:36:35;;;;;;;214.10;147.77;;;;;;;24.36;35.54;103551.94;5075413;28;20063;-42
2022/01/28 12:39:20;;;;;;;212.85;143.95;;;;;;;24.42;35.73;103553.97;5076040;28;20454;-42